KICL

Schenck Field Airport

Clarinda, Iowa, USA
METAR KICL 150315Z AUTO 00000KT 10SM BKN007 BKN021 OVC031 22/21 A2989 RMK AO2
Observed Flight Rules
Aug-15 @ 03:15 UTC (22 minutes ago) Instrument Flight Rules
Visibility Clouds
10 miles
  • Broken at 700' AGL
  • Broken at 2,100' AGL
  • Overcast at 3,100' AGL
Temperatures Readings
Current 22°C / 72°F
Dewpoint 21°C / 70°F
Humidity 94%
Altimeter 29.89" Hg
Pressure 1012 hPa
Elevation 303
METAR KICL 150315Z AUTO 00000KT 10SM BKN007 BKN021 OVC031 22/21 A2989 RMK AO2
Observed Flight Rules
Aug-15 @ 03:15 UTC
(22 minutes ago)
IFR
Clouds
  • Broken at 700' AGL
  • Broken at 2,100' AGL
  • Overcast at 3,100' AGL
Temperature Dewpoint
22°C / 72°F 21°C / 70°F
Humidity Altimeter Pressure
94% 29.89" Hg 1012 hPa